sensor_id;sensor_type;location;lat;lon;timestamp;pressure;altitude;pressure_sealevel;temperature;humidity
63700;BME280;49845;47.130;142.766;2022-08-01T00:01:59;100770.28;;;20.41;64.22
63700;BME280;49845;47.130;142.766;2022-08-01T00:04:30;100761.88;;;20.50;63.19
63700;BME280;49845;47.130;142.766;2022-08-01T00:07:01;100754.41;;;20.58;62.92
63700;BME280;49845;47.130;142.766;2022-08-01T00:09:32;100760.53;;;20.78;62.82
63700;BME280;49845;47.130;142.766;2022-08-01T00:12:02;100761.09;;;20.84;63.32
63700;BME280;49845;47.130;142.766;2022-08-01T00:14:34;100756.28;;;20.91;63.43
63700;BME280;49845;47.130;142.766;2022-08-01T00:17:06;100761.44;;;20.94;62.03
63700;BME280;49845;47.130;142.766;2022-08-01T00:19:37;100759.72;;;20.58;61.46
63700;BME280;49845;47.130;142.766;2022-08-01T00:22:07;100756.91;;;20.79;63.31
63700;BME280;49845;47.130;142.766;2022-08-01T00:24:38;100753.19;;;20.83;63.26
63700;BME280;49845;47.130;142.766;2022-08-01T00:27:08;100744.88;;;20.89;62.79
63700;BME280;49845;47.130;142.766;2022-08-01T00:29:39;100740.34;;;20.91;62.03
63700;BME280;49845;47.130;142.766;2022-08-01T00:32:32;100743.16;;;21.05;62.89
63700;BME280;49845;47.130;142.766;2022-08-01T00:35:03;100736.25;;;21.19;62.06
63700;BME280;49845;47.130;142.766;2022-08-01T00:37:33;100729.91;;;21.39;62.29
63700;BME280;49845;47.130;142.766;2022-08-01T00:40:05;100731.81;;;21.52;62.59
63700;BME280;49845;47.130;142.766;2022-08-01T00:42:35;100727.72;;;21.63;62.20
63700;BME280;49845;47.130;142.766;2022-08-01T00:45:10;100710.06;;;21.62;61.18
63700;BME280;49845;47.130;142.766;2022-08-01T00:47:43;100712.09;;;21.57;60.63
63700;BME280;49845;47.130;142.766;2022-08-01T00:50:13;100710.19;;;21.59;60.71
63700;BME280;49845;47.130;142.766;2022-08-01T00:52:44;100710.38;;;21.40;59.93
63700;BME280;49845;47.130;142.766;2022-08-01T00:55:18;100717.41;;;21.57;61.84
63700;BME280;49845;47.130;142.766;2022-08-01T00:57:50;100707.22;;;21.81;61.97
63700;BME280;49845;47.130;142.766;2022-08-01T01:00:34;100707.03;;;22.00;61.69
63700;BME280;49845;47.130;142.766;2022-08-01T01:03:22;100694.75;;;22.13;60.12
63700;BME280;49845;47.130;142.766;2022-08-01T01:06:28;100687.03;;;22.24;60.74
63700;BME280;49845;47.130;142.766;2022-08-01T01:12:06;100699.72;;;22.35;60.19
63700;BME280;49845;47.130;142.766;2022-08-01T01:14:42;100703.25;;;22.04;59.07
63700;BME280;49845;47.130;142.766;2022-08-01T01:17:17;100698.78;;;21.88;60.93
63700;BME280;49845;47.130;142.766;2022-08-01T01:20:13;100698.19;;;21.83;59.97
63700;BME280;49845;47.130;142.766;2022-08-01T01:22:57;100694.75;;;21.81;61.58
63700;BME280;49845;47.130;142.766;2022-08-01T01:25:51;100688.56;;;21.96;60.81
63700;BME280;49845;47.130;142.766;2022-08-01T01:31:15;100703.94;;;22.23;60.95
63700;BME280;49845;47.130;142.766;2022-08-01T01:33:50;100703.00;;;22.24;60.02
63700;BME280;49845;47.130;142.766;2022-08-01T01:36:22;100696.47;;;22.30;60.10
63700;BME280;49845;47.130;142.766;2022-08-01T01:38:55;100701.88;;;22.28;60.34
63700;BME280;49845;47.130;142.766;2022-08-01T01:41:27;100686.47;;;22.33;59.99
63700;BME280;49845;47.130;142.766;2022-08-01T01:44:00;100693.41;;;22.52;61.00
63700;BME280;49845;47.130;142.766;2022-08-01T01:46:33;100701.00;;;22.58;59.76
63700;BME280;49845;47.130;142.766;2022-08-01T01:49:07;100695.34;;;22.64;59.36
63700;BME280;49845;47.130;142.766;2022-08-01T01:51:40;100694.75;;;22.73;58.68
63700;BME280;49845;47.130;142.766;2022-08-01T01:54:31;100684.44;;;22.53;58.87
63700;BME280;49845;47.130;142.766;2022-08-01T01:57:03;100685.94;;;22.43;58.59
63700;BME280;49845;47.130;142.766;2022-08-01T01:59:36;100689.38;;;22.45;60.15
63700;BME280;49845;47.130;142.766;2022-08-01T02:02:11;100686.91;;;22.56;58.86
63700;BME280;49845;47.130;142.766;2022-08-01T02:04:45;100685.63;;;22.77;58.67
63700;BME280;49845;47.130;142.766;2022-08-01T02:07:22;100679.56;;;22.90;56.88
63700;BME280;49845;47.130;142.766;2022-08-01T02:09:55;100675.13;;;23.04;56.55
63700;BME280;49845;47.130;142.766;2022-08-01T02:12:27;100673.59;;;23.15;56.94
63700;BME280;49845;47.130;142.766;2022-08-01T02:15:00;100674.19;;;23.34;56.40
63700;BME280;49845;47.130;142.766;2022-08-01T02:17:39;100662.63;;;23.48;56.64
63700;BME280;49845;47.130;142.766;2022-08-01T02:20:12;100659.66;;;23.53;56.54
63700;BME280;49845;47.130;142.766;2022-08-01T02:22:47;100664.13;;;23.66;56.59
63700;BME280;49845;47.130;142.766;2022-08-01T02:25:23;100661.47;;;23.52;54.99
63700;BME280;49845;47.130;142.766;2022-08-01T02:27:59;100644.50;;;23.53;55.42
63700;BME280;49845;47.130;142.766;2022-08-01T02:30:33;100651.72;;;23.65;56.14
63700;BME280;49845;47.130;142.766;2022-08-01T02:33:10;100653.81;;;23.60;55.58
63700;BME280;49845;47.130;142.766;2022-08-01T02:35:45;100655.94;;;23.55;55.57
63700;BME280;49845;47.130;142.766;2022-08-01T02:38:41;100662.19;;;23.68;55.50
63700;BME280;49845;47.130;142.766;2022-08-01T02:41:19;100674.41;;;23.73;54.75
63700;BME280;49845;47.130;142.766;2022-08-01T02:43:55;100638.59;;;23.48;54.56
63700;BME280;49845;47.130;142.766;2022-08-01T02:46:31;100682.50;;;23.98;55.02
63700;BME280;49845;47.130;142.766;2022-08-01T02:49:07;100669.38;;;23.95;54.08
63700;BME280;49845;47.130;142.766;2022-08-01T02:51:39;100654.88;;;23.99;53.83
63700;BME280;49845;47.130;142.766;2022-08-01T02:54:11;100661.72;;;24.03;54.75
63700;BME280;49845;47.130;142.766;2022-08-01T02:56:43;100670.81;;;24.14;54.13
63700;BME280;49845;47.130;142.766;2022-08-01T02:59:17;100673.28;;;24.04;53.32
63700;BME280;49845;47.130;142.766;2022-08-01T03:01:49;100664.63;;;23.86;54.13
63700;BME280;49845;47.130;142.766;2022-08-01T03:04:24;100664.03;;;23.95;55.84
63700;BME280;49845;47.130;142.766;2022-08-01T03:06:57;100657.00;;;23.94;54.98
63700;BME280;49845;47.130;142.766;2022-08-01T03:09:30;100649.28;;;23.89;55.25
63700;BME280;49845;47.130;142.766;2022-08-01T03:12:04;100648.66;;;23.99;55.00
63700;BME280;49845;47.130;142.766;2022-08-01T03:14:38;100633.53;;;23.99;56.31
63700;BME280;49845;47.130;142.766;2022-08-01T03:17:09;100646.78;;;24.14;55.51
63700;BME280;49845;47.130;142.766;2022-08-01T03:19:45;100648.38;;;24.03;56.07
63700;BME280;49845;47.130;142.766;2022-08-01T03:22:18;100640.09;;;23.94;55.38
63700;BME280;49845;47.130;142.766;2022-08-01T03:24:52;100623.72;;;23.58;56.49
63700;BME280;49845;47.130;142.766;2022-08-01T03:27:24;100644.50;;;23.53;56.76
63700;BME280;49845;47.130;142.766;2022-08-01T03:29:56;100616.56;;;23.32;57.30
63700;BME280;49845;47.130;142.766;2022-08-01T03:32:28;100638.06;;;23.43;57.64
63700;BME280;49845;47.130;142.766;2022-08-01T03:35:02;100638.59;;;23.48;58.30
63700;BME280;49845;47.130;142.766;2022-08-01T03:37:35;100629.66;;;23.49;58.02
63700;BME280;49845;47.130;142.766;2022-08-01T03:40:31;100636.84;;;23.34;58.72
63700;BME280;49845;47.130;142.766;2022-08-01T03:43:07;100640.16;;;23.23;59.03
63700;BME280;49845;47.130;142.766;2022-08-01T03:45:42;100631.59;;;23.18;58.43
63700;BME280;49845;47.130;142.766;2022-08-01T03:48:17;100634.91;;;23.36;59.68
63700;BME280;49845;47.130;142.766;2022-08-01T03:50:51;100644.91;;;23.47;59.39
63700;BME280;49845;47.130;142.766;2022-08-01T03:53:24;100636.94;;;23.33;58.92
63700;BME280;49845;47.130;142.766;2022-08-01T03:55:56;100626.56;;;23.28;59.04
63700;BME280;49845;47.130;142.766;2022-08-01T03:58:29;100633.72;;;23.13;58.99
63700;BME280;49845;47.130;142.766;2022-08-01T04:01:00;100631.41;;;22.93;58.96
63700;BME280;49845;47.130;142.766;2022-08-01T04:03:31;100634.81;;;22.66;59.21
63700;BME280;49845;47.130;142.766;2022-08-01T04:06:20;100634.97;;;22.34;59.97
63700;BME280;49845;47.130;142.766;2022-08-01T04:08:51;100623.47;;;22.18;60.79
63700;BME280;49845;47.130;142.766;2022-08-01T04:11:31;100633.66;;;21.95;61.58
63700;BME280;49845;47.130;142.766;2022-08-01T04:14:01;100619.53;;;21.79;61.69
63700;BME280;49845;47.130;142.766;2022-08-01T04:16:35;100620.47;;;21.78;61.94
63700;BME280;49845;47.130;142.766;2022-08-01T04:19:07;100605.22;;;21.82;61.84
63700;BME280;49845;47.130;142.766;2022-08-01T04:21:39;100622.47;;;22.05;61.48
63700;BME280;49845;47.130;142.766;2022-08-01T04:24:15;100606.03;;;22.28;60.34
63700;BME280;49845;47.130;142.766;2022-08-01T04:26:48;100600.34;;;22.49;61.02
63700;BME280;49845;47.130;142.766;2022-08-01T04:29:21;100603.81;;;22.65;60.18
63700;BME280;49845;47.130;142.766;2022-08-01T04:31:54;100605.72;;;22.77;59.62
63700;BME280;49845;47.130;142.766;2022-08-01T04:34:26;100585.72;;;22.56;59.58
63700;BME280;49845;47.130;142.766;2022-08-01T04:37:00;100595.81;;;22.65;60.92
63700;BME280;49845;47.130;142.766;2022-08-01T04:39:34;100594.84;;;22.66;59.29
63700;BME280;49845;47.130;142.766;2022-08-01T04:42:18;100588.78;;;22.64;59.58
63700;BME280;49845;47.130;142.766;2022-08-01T04:44:55;100586.31;;;22.75;59.86
63700;BME280;49845;47.130;142.766;2022-08-01T04:47:27;100596.47;;;22.69;58.55
63700;BME280;49845;47.130;142.766;2022-08-01T04:49:58;100582.03;;;22.44;59.15
63700;BME280;49845;47.130;142.766;2022-08-01T04:52:35;100577.44;;;22.32;59.97
63700;BME280;49845;47.130;142.766;2022-08-01T04:55:07;100577.13;;;22.36;59.47
63700;BME280;49845;47.130;142.766;2022-08-01T04:57:39;100567.63;;;22.32;59.68
63700;BME280;49845;47.130;142.766;2022-08-01T05:00:12;100577.28;;;22.19;59.37
63700;BME280;49845;47.130;142.766;2022-08-01T05:02:42;100574.22;;;22.11;60.91
63700;BME280;49845;47.130;142.766;2022-08-01T05:05:13;100570.31;;;21.86;61.27
63700;BME280;49845;47.130;142.766;2022-08-01T05:07:45;100575.16;;;21.80;61.73
63700;BME280;49845;47.130;142.766;2022-08-01T05:10:16;100566.75;;;21.87;62.44
63700;BME280;49845;47.130;142.766;2022-08-01T05:12:46;100559.34;;;21.92;61.82
63700;BME280;49845;47.130;142.766;2022-08-01T05:15:17;100562.94;;;21.91;62.28
63700;BME280;49845;47.130;142.766;2022-08-01T05:17:47;100565.63;;;22.06;61.41
63700;BME280;49845;47.130;142.766;2022-08-01T05:20:18;100561.34;;;22.03;60.75
63700;BME280;49845;47.130;142.766;2022-08-01T05:22:50;100562.41;;;22.01;61.05
63700;BME280;49845;47.130;142.766;2022-08-01T05:25:21;100565.97;;;21.85;61.06
63700;BME280;49845;47.130;142.766;2022-08-01T05:28:12;100555.84;;;21.76;61.53
63700;BME280;49845;47.130;142.766;2022-08-01T05:30:45;100562.78;;;21.94;62.06
63700;BME280;49845;47.130;142.766;2022-08-01T05:33:16;100554.22;;;21.89;61.36
63700;BME280;49845;47.130;142.766;2022-08-01T05:35:49;100548.31;;;21.84;61.05
63700;BME280;49845;47.130;142.766;2022-08-01T05:38:21;100553.56;;;21.70;61.20
63700;BME280;49845;47.130;142.766;2022-08-01T05:40:52;100545.72;;;21.52;61.51
63700;BME280;49845;47.130;142.766;2022-08-01T05:43:22;100551.88;;;21.37;61.12
63700;BME280;49845;47.130;142.766;2022-08-01T05:45:56;100561.41;;;21.09;62.23
63700;BME280;49845;47.130;142.766;2022-08-01T05:48:26;100569.00;;;21.00;62.95
63700;BME280;49845;47.130;142.766;2022-08-01T05:50:57;100571.56;;;20.85;63.08
63700;BME280;49845;47.130;142.766;2022-08-01T05:53:29;100561.41;;;20.76;63.63
63700;BME280;49845;47.130;142.766;2022-08-01T05:56:02;100543.06;;;20.72;63.72
63700;BME280;49845;47.130;142.766;2022-08-01T05:58:33;100540.09;;;20.78;63.86
63700;BME280;49845;47.130;142.766;2022-08-01T06:01:04;100542.75;;;20.78;63.90
63700;BME280;49845;47.130;142.766;2022-08-01T06:03:34;100534.88;;;20.76;64.05
63700;BME280;49845;47.130;142.766;2022-08-01T06:06:05;100519.63;;;20.80;63.46
63700;BME280;49845;47.130;142.766;2022-08-01T06:08:37;100518.25;;;20.88;64.39
63700;BME280;49845;47.130;142.766;2022-08-01T06:11:08;100513.91;;;20.87;64.03
63700;BME280;49845;47.130;142.766;2022-08-01T06:13:40;100519.47;;;20.99;64.60
63700;BME280;49845;47.130;142.766;2022-08-01T06:16:15;100532.25;;;21.08;63.28
63700;BME280;49845;47.130;142.766;2022-08-01T06:18:46;100527.53;;;20.97;64.17
63700;BME280;49845;47.130;142.766;2022-08-01T06:21:21;100529.91;;;20.86;63.83
63700;BME280;49845;47.130;142.766;2022-08-01T06:23:53;100534.03;;;20.76;64.11
63700;BME280;49845;47.130;142.766;2022-08-01T06:26:24;100524.06;;;20.63;64.20
63700;BME280;49845;47.130;142.766;2022-08-01T06:28:55;100513.97;;;20.70;65.17
63700;BME280;49845;47.130;142.766;2022-08-01T06:31:25;100518.97;;;20.92;65.22
63700;BME280;49845;47.130;142.766;2022-08-01T06:34:00;100529.06;;;21.01;64.84
63700;BME280;49845;47.130;142.766;2022-08-01T06:36:31;100530.09;;;20.83;63.53
63700;BME280;49845;47.130;142.766;2022-08-01T06:39:03;100534.19;;;20.73;64.04
63700;BME280;49845;47.130;142.766;2022-08-01T06:41:34;100523.88;;;20.66;64.47
63700;BME280;49845;47.130;142.766;2022-08-01T06:44:05;100508.13;;;20.63;64.94
63700;BME280;49845;47.130;142.766;2022-08-01T06:46:35;100515.50;;;20.74;65.21
63700;BME280;49845;47.130;142.766;2022-08-01T06:49:06;100514.81;;;20.71;64.32
63700;BME280;49845;47.130;142.766;2022-08-01T06:51:37;100521.75;;;20.57;64.64
63700;BME280;49845;47.130;142.766;2022-08-01T06:54:09;100523.16;;;20.47;65.08
63700;BME280;49845;47.130;142.766;2022-08-01T06:56:40;100517.09;;;20.28;65.37
63700;BME280;49845;47.130;142.766;2022-08-01T06:59:10;100514.75;;;20.21;66.35
63700;BME280;49845;47.130;142.766;2022-08-01T07:01:41;100525.06;;;20.10;66.07
63700;BME280;49845;47.130;142.766;2022-08-01T07:04:11;100509.47;;;20.04;66.69
63700;BME280;49845;47.130;142.766;2022-08-01T07:06:42;100511.97;;;20.07;67.10
63700;BME280;49845;47.130;142.766;2022-08-01T07:09:14;100506.75;;;20.06;67.08
63700;BME280;49845;47.130;142.766;2022-08-01T07:11:45;100520.78;;;20.08;67.10
63700;BME280;49845;47.130;142.766;2022-08-01T07:14:16;100521.25;;;20.16;67.17
63700;BME280;49845;47.130;142.766;2022-08-01T07:16:47;100513.22;;;20.17;65.90
63700;BME280;49845;47.130;142.766;2022-08-01T07:19:18;100526.78;;;20.11;66.39
63700;BME280;49845;47.130;142.766;2022-08-01T07:21:49;100524.84;;;19.97;66.87
63700;BME280;49845;47.130;142.766;2022-08-01T07:24:22;100523.84;;;19.82;66.92
63700;BME280;49845;47.130;142.766;2022-08-01T07:26:55;100523.66;;;19.68;67.16
63700;BME280;49845;47.130;142.766;2022-08-01T07:29:46;100520.13;;;19.50;67.39
63700;BME280;49845;47.130;142.766;2022-08-01T07:32:17;100509.09;;;19.40;68.14
63700;BME280;49845;47.130;142.766;2022-08-01T07:34:47;100514.84;;;19.31;68.31
63700;BME280;49845;47.130;142.766;2022-08-01T07:37:18;100522.00;;;19.29;68.57
63700;BME280;49845;47.130;142.766;2022-08-01T07:40:11;100527.13;;;19.15;67.89
63700;BME280;49845;47.130;142.766;2022-08-01T07:42:42;100531.06;;;19.06;68.25
63700;BME280;49845;47.130;142.766;2022-08-01T07:45:13;100536.50;;;18.84;68.40
63700;BME280;49845;47.130;142.766;2022-08-01T07:47:44;100535.19;;;18.74;69.30
63700;BME280;49845;47.130;142.766;2022-08-01T07:50:15;100507.97;;;18.51;69.80
63700;BME280;49845;47.130;142.766;2022-08-01T07:52:46;100528.59;;;18.64;70.13
63700;BME280;49845;47.130;142.766;2022-08-01T07:55:18;100520.50;;;18.67;70.22
63700;BME280;49845;47.130;142.766;2022-08-01T07:57:49;100518.41;;;18.54;70.41
63700;BME280;49845;47.130;142.766;2022-08-01T08:00:20;100506.66;;;18.41;70.10
63700;BME280;49845;47.130;142.766;2022-08-01T08:02:50;100507.06;;;18.32;70.83
63700;BME280;49845;47.130;142.766;2022-08-01T08:05:22;100514.34;;;18.27;71.23
63700;BME280;49845;47.130;142.766;2022-08-01T08:08:13;100507.66;;;18.20;71.52
63700;BME280;49845;47.130;142.766;2022-08-01T08:10:50;100504.75;;;18.05;71.98
63700;BME280;49845;47.130;142.766;2022-08-01T08:13:21;100523.31;;;18.04;72.05
63700;BME280;49845;47.130;142.766;2022-08-01T08:15:51;100528.69;;;18.02;72.53
63700;BME280;49845;47.130;142.766;2022-08-01T08:18:24;100535.16;;;17.95;72.78
63700;BME280;49845;47.130;142.766;2022-08-01T08:20:55;100538.84;;;17.91;73.37
63700;BME280;49845;47.130;142.766;2022-08-01T08:23:32;100537.13;;;17.90;73.50
63700;BME280;49845;47.130;142.766;2022-08-01T08:26:21;100526.78;;;17.84;73.53
63700;BME280;49845;47.130;142.766;2022-08-01T08:28:55;100533.22;;;17.77;73.66
63700;BME280;49845;47.130;142.766;2022-08-01T08:31:25;100541.00;;;17.59;73.88
63700;BME280;49845;47.130;142.766;2022-08-01T08:34:16;100537.81;;;17.51;74.44
63700;BME280;49845;47.130;142.766;2022-08-01T08:36:48;100526.31;;;17.52;74.59
63700;BME280;49845;47.130;142.766;2022-08-01T08:39:19;100524.75;;;17.48;74.86
63700;BME280;49845;47.130;142.766;2022-08-01T08:41:51;100498.38;;;17.24;75.29
63700;BME280;49845;47.130;142.766;2022-08-01T08:44:22;100503.31;;;17.34;75.25
63700;BME280;49845;47.130;142.766;2022-08-01T08:46:53;100509.63;;;17.30;75.18
63700;BME280;49845;47.130;142.766;2022-08-01T08:49:26;100490.22;;;17.31;75.18
63700;BME280;49845;47.130;142.766;2022-08-01T08:52:03;100483.47;;;17.23;75.47
63700;BME280;49845;47.130;142.766;2022-08-01T08:54:37;100486.38;;;17.17;75.87
63700;BME280;49845;47.130;142.766;2022-08-01T08:57:11;100489.00;;;17.17;75.68
63700;BME280;49845;47.130;142.766;2022-08-01T08:59:43;100488.75;;;17.01;75.85
63700;BME280;49845;47.130;142.766;2022-08-01T09:02:14;100491.56;;;16.97;76.21
63700;BME280;49845;47.130;142.766;2022-08-01T09:04:47;100497.44;;;16.81;76.48
63700;BME280;49845;47.130;142.766;2022-08-01T09:07:18;100508.22;;;16.75;76.87
63700;BME280;49845;47.130;142.766;2022-08-01T09:09:48;100505.78;;;16.69;77.29
63700;BME280;49845;47.130;142.766;2022-08-01T09:12:22;100500.69;;;16.65;77.43
63700;BME280;49845;47.130;142.766;2022-08-01T09:14:52;100501.66;;;16.62;77.21
63700;BME280;49845;47.130;142.766;2022-08-01T09:17:23;100500.06;;;16.58;77.49
63700;BME280;49845;47.130;142.766;2022-08-01T09:19:55;100505.47;;;16.55;77.64
63700;BME280;49845;47.130;142.766;2022-08-01T09:22:26;100509.13;;;16.51;77.79
63700;BME280;49845;47.130;142.766;2022-08-01T09:25:01;100500.00;;;16.36;78.18
63700;BME280;49845;47.130;142.766;2022-08-01T09:27:34;100506.97;;;16.37;78.25
63700;BME280;49845;47.130;142.766;2022-08-01T09:30:14;100494.50;;;16.17;78.31
63700;BME280;49845;47.130;142.766;2022-08-01T09:32:54;100515.41;;;16.23;78.50
63700;BME280;49845;47.130;142.766;2022-08-01T09:35:27;100505.50;;;16.05;78.70
63700;BME280;49845;47.130;142.766;2022-08-01T09:38:14;100516.16;;;16.02;79.13
63700;BME280;49845;47.130;142.766;2022-08-01T09:40:49;100492.09;;;15.86;79.31
63700;BME280;49845;47.130;142.766;2022-08-01T09:43:23;100514.63;;;15.94;79.60
63700;BME280;49845;47.130;142.766;2022-08-01T09:45:54;100506.25;;;15.83;79.54
63700;BME280;49845;47.130;142.766;2022-08-01T09:48:26;100525.09;;;15.98;79.58
63700;BME280;49845;47.130;142.766;2022-08-01T09:50:58;100519.00;;;15.95;79.90
63700;BME280;49845;47.130;142.766;2022-08-01T09:53:45;100521.84;;;15.89;80.04
63700;BME280;49845;47.130;142.766;2022-08-01T09:56:20;100521.09;;;15.86;80.22
63700;BME280;49845;47.130;142.766;2022-08-01T09:58:54;100511.19;;;15.92;80.26
63700;BME280;49845;47.130;142.766;2022-08-01T10:01:39;100496.00;;;15.74;80.57
63700;BME280;49845;47.130;142.766;2022-08-01T10:04:13;100505.44;;;15.81;80.72
63700;BME280;49845;47.130;142.766;2022-08-01T10:06:46;100502.09;;;15.76;80.80
63700;BME280;49845;47.130;142.766;2022-08-01T10:09:28;100511.81;;;15.74;81.16
63700;BME280;49845;47.130;142.766;2022-08-01T10:12:08;100520.72;;;15.70;81.29
63700;BME280;49845;47.130;142.766;2022-08-01T10:14:45;100522.38;;;15.74;81.53
63700;BME280;49845;47.130;142.766;2022-08-01T10:17:18;100510.97;;;15.73;81.39
63700;BME280;49845;47.130;142.766;2022-08-01T10:19:50;100469.72;;;15.46;81.60
63700;BME280;49845;47.130;142.766;2022-08-01T10:22:27;100504.00;;;15.72;81.62
63700;BME280;49845;47.130;142.766;2022-08-01T10:25:04;100501.47;;;15.68;81.66
63700;BME280;49845;47.130;142.766;2022-08-01T10:27:37;100507.72;;;15.65;81.77
63700;BME280;49845;47.130;142.766;2022-08-01T10:30:11;100505.97;;;15.64;81.99
63700;BME280;49845;47.130;142.766;2022-08-01T10:32:51;100505.13;;;15.64;82.01
63700;BME280;49845;47.130;142.766;2022-08-01T10:35:22;100509.56;;;15.62;82.24
63700;BME280;49845;47.130;142.766;2022-08-01T10:38:13;100504.56;;;15.54;82.46
63700;BME280;49845;47.130;142.766;2022-08-01T10:40:45;100504.78;;;15.48;83.05
63700;BME280;49845;47.130;142.766;2022-08-01T10:43:16;100502.16;;;15.46;83.02
63700;BME280;49845;47.130;142.766;2022-08-01T10:45:51;100514.34;;;15.50;83.14
63700;BME280;49845;47.130;142.766;2022-08-01T10:48:28;100520.25;;;15.57;83.10
63700;BME280;49845;47.130;142.766;2022-08-01T10:51:04;100519.38;;;15.57;83.07
63700;BME280;49845;47.130;142.766;2022-08-01T10:53:50;100520.34;;;15.54;83.20
63700;BME280;49845;47.130;142.766;2022-08-01T10:56:23;100515.16;;;15.52;83.46
63700;BME280;49845;47.130;142.766;2022-08-01T10:59:02;100523.91;;;15.53;83.73
63700;BME280;49845;47.130;142.766;2022-08-01T11:01:40;100518.66;;;15.53;83.71
63700;BME280;49845;47.130;142.766;2022-08-01T11:04:13;100521.22;;;15.54;83.65
63700;BME280;49845;47.130;142.766;2022-08-01T11:07:02;100503.03;;;15.47;83.74
63700;BME280;49845;47.130;142.766;2022-08-01T11:09:41;100507.16;;;15.56;83.45
63700;BME280;49845;47.130;142.766;2022-08-01T11:12:18;100510.69;;;15.54;83.50
63700;BME280;49845;47.130;142.766;2022-08-01T11:15:24;100508.25;;;15.48;83.58
63700;BME280;49845;47.130;142.766;2022-08-01T11:18:31;100504.09;;;15.41;83.53
63700;BME280;49845;47.130;142.766;2022-08-01T11:21:04;100506.97;;;15.34;83.54
63700;BME280;49845;47.130;142.766;2022-08-01T11:23:55;100513.31;;;15.28;83.47
63700;BME280;49845;47.130;142.766;2022-08-01T11:26:26;100507.25;;;15.24;83.48
63700;BME280;49845;47.130;142.766;2022-08-01T11:29:15;100517.03;;;15.21;83.61
63700;BME280;49845;47.130;142.766;2022-08-01T11:31:49;100505.97;;;15.09;83.57
63700;BME280;49845;47.130;142.766;2022-08-01T11:37:35;100504.16;;;15.12;83.81
63700;BME280;49845;47.130;142.766;2022-08-01T11:40:16;100498.06;;;15.09;83.62
63700;BME280;49845;47.130;142.766;2022-08-01T11:42:50;100505.09;;;15.10;83.48
63700;BME280;49845;47.130;142.766;2022-08-01T11:45:22;100505.97;;;15.09;83.43
63700;BME280;49845;47.130;142.766;2022-08-01T11:48:18;100498.38;;;15.00;83.28
63700;BME280;49845;47.130;142.766;2022-08-01T11:50:54;100506.53;;;14.93;83.64
63700;BME280;49845;47.130;142.766;2022-08-01T11:53:31;100495.22;;;14.89;83.75
63700;BME280;49845;47.130;142.766;2022-08-01T11:56:03;100497.97;;;14.84;83.97
63700;BME280;49845;47.130;142.766;2022-08-01T11:58:34;100455.88;;;14.56;83.94
63700;BME280;49845;47.130;142.766;2022-08-01T12:01:13;100505.25;;;14.76;84.28
63700;BME280;49845;47.130;142.766;2022-08-01T12:03:44;100500.00;;;14.75;84.47
63700;BME280;49845;47.130;142.766;2022-08-01T12:06:27;100505.38;;;14.72;84.65
63700;BME280;49845;47.130;142.766;2022-08-01T12:09:15;100494.97;;;14.67;84.81
63700;BME280;49845;47.130;142.766;2022-08-01T12:11:47;100494.22;;;14.63;84.96
63700;BME280;49845;47.130;142.766;2022-08-01T12:14:19;100494.31;;;14.60;85.31
63700;BME280;49845;47.130;142.766;2022-08-01T12:16:53;100494.31;;;14.60;84.97
63700;BME280;49845;47.130;142.766;2022-08-01T12:19:26;100492.59;;;14.59;85.42
63700;BME280;49845;47.130;142.766;2022-08-01T12:22:10;100483.81;;;14.60;85.36
63700;BME280;49845;47.130;142.766;2022-08-01T12:24:47;100454.53;;;14.40;85.11
63700;BME280;49845;47.130;142.766;2022-08-01T12:27:26;100473.44;;;14.54;85.45
63700;BME280;49845;47.130;142.766;2022-08-01T12:29:58;100464.81;;;14.49;85.62
63700;BME280;49845;47.130;142.766;2022-08-01T12:32:30;100469.94;;;14.55;85.65
63700;BME280;49845;47.130;142.766;2022-08-01T12:35:03;100468.25;;;14.51;85.68
63700;BME280;49845;47.130;142.766;2022-08-01T12:37:36;100464.81;;;14.49;85.98
63700;BME280;49845;47.130;142.766;2022-08-01T12:40:17;100457.88;;;14.46;85.99
63700;BME280;49845;47.130;142.766;2022-08-01T12:42:49;100426.91;;;14.27;86.08
63700;BME280;49845;47.130;142.766;2022-08-01T12:45:24;100451.13;;;14.38;86.18
63700;BME280;49845;47.130;142.766;2022-08-01T12:47:55;100447.56;;;14.39;86.57
63700;BME280;49845;47.130;142.766;2022-08-01T12:50:29;100442.31;;;14.39;86.59
63700;BME280;49845;47.130;142.766;2022-08-01T12:53:01;100447.38;;;14.45;86.72
63700;BME280;49845;47.130;142.766;2022-08-01T12:55:44;100449.94;;;14.48;86.71
63700;BME280;49845;47.130;142.766;2022-08-01T12:58:31;100446.50;;;14.46;86.54
63700;BME280;49845;47.130;142.766;2022-08-01T13:01:05;100425.00;;;14.32;86.64
63700;BME280;49845;47.130;142.766;2022-08-01T13:03:36;100428.34;;;14.37;87.00
63700;BME280;49845;47.130;142.766;2022-08-01T13:06:11;100430.09;;;14.38;87.23
63700;BME280;49845;47.130;142.766;2022-08-01T13:08:44;100430.88;;;14.40;87.42
63700;BME280;49845;47.130;142.766;2022-08-01T13:11:16;100423.00;;;14.40;87.16
63700;BME280;49845;47.130;142.766;2022-08-01T13:13:49;100410.88;;;14.36;87.12
63700;BME280;49845;47.130;142.766;2022-08-01T13:16:22;100416.78;;;14.42;86.92
63700;BME280;49845;47.130;142.766;2022-08-01T13:19:13;100408.88;;;14.44;86.94